Aviation Digital Data Service (ADDS)

Output produced by METARs form (0920 UTC 19 November 2018)
found at http://www.aviationweather.gov/metar/data/
 
RJCB 190900Z 32006KT 280V350 5000 BR FEW003 BKN006 BKN014 01/01 Q1011
RJCB 190846Z 31006KT 280V340 8000 FEW002 SCT003 BKN006 01/01 Q1011 RMK 1ST002 4ST003 7ST006 A2987
TAF RJCB 190508Z 1906/2012 33013KT 9999 FEW005 BKN015 
     TEMPO 1906/1909 1500 SHRASN BR FEW002 BKN003 
     TEMPO 1909/1912 3000 BR FEW003 BKN005